createdAt,value
2018-07-24T00:00:30.622Z,980.7
2018-07-24T00:01:40.432Z,980.68
2018-07-24T00:02:49.976Z,980.71
2018-07-24T00:03:59.523Z,980.69
2018-07-24T00:05:09.609Z,980.67
2018-07-24T00:06:19.733Z,980.71
2018-07-24T00:07:29.786Z,980.78
2018-07-24T00:08:39.593Z,980.73
2018-07-24T00:09:49.677Z,980.79
2018-07-24T00:10:59.829Z,980.78
2018-07-24T00:12:10.299Z,980.73
2018-07-24T00:13:20.359Z,980.7
2018-07-24T00:14:30.437Z,980.73
2018-07-24T00:15:40.512Z,980.71
2018-07-24T00:16:50.360Z,980.72
2018-07-24T00:17:59.945Z,980.71
2018-07-24T00:19:09.753Z,980.7
2018-07-24T00:20:19.567Z,980.7
2018-07-24T00:21:29.639Z,980.7
2018-07-24T00:22:39.439Z,980.7
2018-07-24T00:23:49.608Z,980.66
2018-07-24T00:24:59.660Z,980.69
2018-07-24T00:26:09.727Z,980.64
2018-07-24T00:27:19.263Z,980.63
2018-07-24T00:28:29.347Z,980.61
2018-07-24T00:29:39.193Z,980.6
2018-07-24T00:30:48.997Z,980.62
2018-07-24T00:31:58.805Z,980.6
2018-07-24T00:33:09.034Z,980.62
2018-07-24T00:34:19.109Z,980.63
2018-07-24T00:35:29.248Z,980.63
2018-07-24T00:36:39.039Z,980.63
2018-07-24T00:37:48.841Z,980.61
2018-07-24T00:38:58.906Z,980.62
2018-07-24T00:40:08.708Z,980.61
2018-07-24T00:41:18.538Z,980.57
2018-07-24T00:42:28.617Z,980.55
2018-07-24T00:43:38.687Z,980.53
2018-07-24T00:44:48.759Z,980.53
2018-07-24T00:45:58.805Z,980.53
2018-07-24T00:47:08.914Z,980.52
2018-07-24T00:48:18.973Z,980.51
2018-07-24T00:49:28.516Z,980.55
2018-07-24T00:50:38.335Z,980.51
2018-07-24T00:51:47.599Z,980.55
2018-07-24T00:52:57.760Z,980.56
2018-07-24T00:54:07.854Z,980.56
2018-07-24T00:55:17.586Z,980.6
2018-07-24T00:56:27.104Z,980.57
2018-07-24T00:57:37.161Z,980.6
2018-07-24T00:58:47.015Z,980.59
2018-07-24T00:59:56.845Z,980.6
2018-07-24T01:01:06.650Z,980.61
2018-07-24T01:02:16.458Z,980.6
2018-07-24T01:03:26.560Z,980.64
2018-07-24T01:04:36.475Z,980.66
2018-07-24T01:05:46.290Z,980.69
2018-07-24T01:06:56.081Z,980.69
2018-07-24T01:08:06.155Z,980.66
2018-07-24T01:09:16.228Z,980.7
2018-07-24T01:10:26.108Z,980.7
2018-07-24T01:11:36.175Z,980.68
2018-07-24T01:12:45.711Z,980.71
2018-07-24T01:13:55.505Z,980.72
2018-07-24T01:15:05.314Z,980.72
2018-07-24T01:16:15.174Z,980.74
2018-07-24T01:17:25.301Z,980.74
2018-07-24T01:18:35.383Z,980.72
2018-07-24T01:19:45.456Z,980.75
2018-07-24T01:20:55.260Z,980.72
2018-07-24T01:22:05.401Z,980.71
2018-07-24T01:23:15.207Z,980.71
2018-07-24T01:24:25.285Z,980.7
2018-07-24T01:25:35.101Z,980.71
2018-07-24T01:26:45.175Z,980.68
2018-07-24T01:27:55.305Z,980.7
2018-07-24T01:29:04.821Z,980.7
2018-07-24T01:30:14.881Z,980.69
2018-07-24T01:31:24.968Z,980.75
2018-07-24T01:32:34.487Z,980.7
2018-07-24T01:33:44.069Z,980.71
2018-07-24T01:34:54.155Z,980.72
2018-07-24T01:36:03.961Z,980.75
2018-07-24T01:37:14.023Z,980.74
2018-07-24T01:38:23.564Z,980.77
2018-07-24T01:39:33.697Z,980.76
2018-07-24T01:40:43.507Z,980.77
2018-07-24T01:41:53.569Z,980.77
2018-07-24T01:43:03.373Z,980.79
2018-07-24T01:44:12.902Z,980.77
2018-07-24T01:45:22.760Z,980.73
2018-07-24T01:46:32.825Z,980.73
2018-07-24T01:47:42.899Z,980.75
2018-07-24T01:48:52.756Z,980.75
2018-07-24T01:50:02.298Z,980.72
2018-07-24T01:51:11.613Z,980.74
2018-07-24T01:52:21.695Z,980.76
2018-07-24T01:53:31.753Z,980.75
2018-07-24T01:54:41.820Z,980.77
2018-07-24T01:55:51.621Z,980.74
2018-07-24T01:57:01.468Z,980.73
2018-07-24T01:58:11.269Z,980.76
2018-07-24T01:59:20.804Z,980.78
2018-07-24T02:00:30.607Z,980.82
2018-07-24T02:01:40.667Z,980.83
2018-07-24T02:02:50.792Z,980.78
2018-07-24T02:04:00.599Z,980.82
2018-07-24T02:05:10.414Z,980.84
2018-07-24T02:06:20.531Z,980.86
2018-07-24T02:07:30.584Z,980.89
2018-07-24T02:08:39.904Z,980.89
2018-07-24T02:09:49.986Z,980.96
2018-07-24T02:11:00.053Z,980.96
2018-07-24T02:12:10.118Z,981.04
2018-07-24T02:13:19.931Z,981.02
2018-07-24T02:14:29.493Z,981
2018-07-24T02:15:39.291Z,981
2018-07-24T02:16:49.133Z,980.96
2018-07-24T02:17:58.932Z,980.98
2018-07-24T02:19:08.999Z,980.96
2018-07-24T02:20:18.856Z,980.95
2018-07-24T02:21:28.941Z,981
2018-07-24T02:22:38.743Z,980.95
2018-07-24T02:23:48.810Z,980.92
2018-07-24T02:24:58.882Z,980.93
2018-07-24T02:26:08.995Z,980.93
2018-07-24T02:27:18.806Z,980.92
2018-07-24T02:28:28.330Z,980.96
2018-07-24T02:29:38.407Z,980.94
2018-07-24T02:30:48.210Z,980.95
2018-07-24T02:31:58.398Z,980.98
2018-07-24T02:33:08.125Z,980.98
2018-07-24T02:34:17.912Z,980.97
2018-07-24T02:35:27.719Z,980.96
2018-07-24T02:36:37.537Z,980.96
2018-07-24T02:37:47.129Z,980.97
2018-07-24T02:38:57.195Z,980.95
2018-07-24T02:40:07.019Z,980.95
2018-07-24T02:41:17.101Z,980.94
2018-07-24T02:42:27.188Z,980.97
2018-07-24T02:43:37.322Z,981.01
2018-07-24T02:44:47.144Z,981.01
2018-07-24T02:45:57.242Z,981.01
2018-07-24T02:47:07.333Z,981.02
2018-07-24T02:48:16.863Z,981.01
2018-07-24T02:49:26.737Z,980.96
2018-07-24T02:50:36.567Z,980.98
2018-07-24T02:51:46.361Z,981
2018-07-24T02:52:55.911Z,981.02
2018-07-24T02:54:05.999Z,981.01
2018-07-24T02:55:16.120Z,981.04
2018-07-24T02:56:25.673Z,981.01
2018-07-24T02:57:35.762Z,980.96
2018-07-24T02:58:45.844Z,981.01
2018-07-24T02:59:55.934Z,981.01
2018-07-24T03:03:39.215Z,980.96
2018-07-24T03:04:49.017Z,981
2018-07-24T03:05:59.095Z,981
2018-07-24T03:07:08.915Z,980.99
2018-07-24T03:08:18.741Z,980.99
2018-07-24T03:09:28.325Z,981.03
2018-07-24T03:10:38.476Z,981.03
2018-07-24T03:11:48.557Z,981.09
2018-07-24T03:12:58.670Z,981.09
2018-07-24T03:14:08.495Z,981.06
2018-07-24T03:15:18.644Z,981.12
2018-07-24T03:16:28.709Z,981.1
2018-07-24T03:17:38.798Z,981.13
2018-07-24T03:18:48.860Z,981.15
2018-07-24T03:19:58.985Z,981.15
2018-07-24T03:21:09.154Z,981.11
2018-07-24T03:22:18.964Z,981.14
2018-07-24T03:23:28.770Z,981.16
2018-07-24T03:24:38.856Z,981.14
2018-07-24T03:25:48.926Z,981.14
2018-07-24T03:26:58.788Z,981.15
2018-07-24T03:28:08.593Z,981.16
2018-07-24T03:29:18.660Z,981.16
2018-07-24T03:30:28.479Z,981.15
2018-07-24T03:31:38.287Z,981.19
2018-07-24T03:32:47.875Z,981.18
2018-07-24T03:33:57.951Z,981.22
2018-07-24T03:35:08.020Z,981.23
2018-07-24T03:36:17.559Z,981.21
2018-07-24T03:37:27.373Z,981.21
2018-07-24T03:38:37.519Z,981.27
2018-07-24T03:39:47.704Z,981.25
2018-07-24T03:40:57.804Z,981.26
2018-07-24T03:42:07.597Z,981.28
2018-07-24T03:43:17.668Z,981.3
2018-07-24T03:44:27.810Z,981.3
2018-07-24T03:45:37.602Z,981.29
2018-07-24T03:46:47.404Z,981.28
2018-07-24T03:47:57.202Z,981.28
2018-07-24T03:49:07.313Z,981.27
2018-07-24T03:50:17.178Z,981.3
2018-07-24T03:51:27.264Z,981.33
2018-07-24T03:52:37.065Z,981.36
2018-07-24T03:53:46.874Z,981.36
2018-07-24T03:54:56.674Z,981.33
2018-07-24T03:56:06.243Z,981.3
2018-07-24T03:57:16.316Z,981.32
2018-07-24T03:58:26.114Z,981.32
2018-07-24T03:59:35.908Z,981.32
2018-07-24T04:00:45.962Z,981.3
2018-07-24T04:01:56.084Z,981.34
2018-07-24T04:03:05.886Z,981.33
2018-07-24T04:04:15.695Z,981.31
2018-07-24T04:05:25.491Z,981.29
2018-07-24T04:06:35.293Z,981.29
2018-07-24T04:07:45.444Z,981.29
2018-07-24T04:08:55.519Z,981.22
2018-07-24T04:10:05.049Z,981.31
2018-07-24T04:11:15.165Z,981.31
2018-07-24T04:12:25.248Z,981.3
2018-07-24T04:13:35.121Z,981.3
2018-07-24T04:14:45.200Z,981.34
2018-07-24T04:15:55.007Z,981.34
2018-07-24T04:17:04.809Z,981.31
2018-07-24T04:18:14.613Z,981.37
2018-07-24T04:19:24.728Z,981.35
2018-07-24T04:20:34.531Z,981.37
2018-07-24T04:21:44.325Z,981.39
2018-07-24T04:22:53.593Z,981.38
2018-07-24T04:24:03.671Z,981.39
2018-07-24T04:25:13.797Z,981.4
2018-07-24T04:26:23.877Z,981.43
2018-07-24T04:27:33.963Z,981.45
2018-07-24T04:28:43.498Z,981.5
2018-07-24T04:29:53.308Z,981.52
2018-07-24T04:31:03.197Z,981.5
2018-07-24T04:32:13.021Z,981.5
2018-07-24T04:33:23.091Z,981.5
2018-07-24T04:34:32.372Z,981.52
2018-07-24T04:35:42.186Z,981.49
2018-07-24T04:36:52.324Z,981.49
2018-07-24T04:38:01.593Z,981.46
2018-07-24T04:39:11.142Z,981.51
2018-07-24T04:40:21.087Z,981.47
2018-07-24T04:41:30.965Z,981.42
2018-07-24T04:42:40.548Z,981.48
2018-07-24T04:43:50.349Z,981.48
2018-07-24T04:45:00.443Z,981.46
2018-07-24T04:46:10.534Z,981.46
2018-07-24T04:47:20.334Z,981.48
2018-07-24T04:48:30.510Z,981.47
2018-07-24T04:49:40.736Z,981.41
2018-07-24T04:50:50.812Z,981.45
2018-07-24T04:52:00.902Z,981.45
2018-07-24T04:53:10.971Z,981.46
2018-07-24T04:54:20.825Z,981.44
2018-07-24T04:55:30.902Z,981.45
2018-07-24T04:56:40.985Z,981.43
2018-07-24T04:57:51.059Z,981.46
2018-07-24T04:59:01.129Z,981.45
2018-07-24T05:00:11.244Z,981.48
2018-07-24T05:01:21.304Z,981.48
2018-07-24T05:02:31.421Z,981.48
2018-07-24T05:03:41.146Z,981.47
2018-07-24T05:04:51.223Z,981.51
2018-07-24T05:06:01.083Z,981.52
2018-07-24T05:07:11.139Z,981.52
2018-07-24T05:08:20.674Z,981.54
2018-07-24T05:09:30.515Z,981.52
2018-07-24T05:10:40.985Z,981.53
2018-07-24T05:11:50.848Z,981.56
2018-07-24T05:13:00.926Z,981.52
2018-07-24T05:14:10.996Z,981.58
2018-07-24T05:15:21.061Z,981.56
2018-07-24T05:16:30.610Z,981.58
2018-07-24T05:17:40.821Z,981.57
2018-07-24T05:18:50.881Z,981.61
2018-07-24T05:20:00.942Z,981.61
2018-07-24T05:21:10.468Z,981.65
2018-07-24T05:22:20.277Z,981.62
2018-07-24T05:23:30.428Z,981.64
2018-07-24T05:24:40.539Z,981.62
2018-07-24T05:25:50.388Z,981.59
2018-07-24T05:27:01.023Z,981.59
2018-07-24T05:28:10.826Z,981.59
2018-07-24T05:29:20.961Z,981.64
2018-07-24T05:30:30.768Z,981.6
2018-07-24T05:31:40.594Z,981.61
2018-07-24T05:32:50.406Z,981.62
2018-07-24T05:34:00.208Z,981.62
2018-07-24T05:35:10.346Z,981.64
2018-07-24T05:36:20.425Z,981.62
2018-07-24T05:37:30.230Z,981.66
2018-07-24T05:38:40.060Z,981.64
2018-07-24T05:39:50.345Z,981.65
2018-07-24T05:40:59.665Z,981.64
2018-07-24T05:42:08.925Z,981.65
2018-07-24T05:43:19.012Z,981.65
2018-07-24T05:44:28.256Z,981.6
2018-07-24T05:45:38.067Z,981.61
2018-07-24T05:46:48.178Z,981.57
2018-07-24T05:47:58.258Z,981.59
2018-07-24T05:49:08.332Z,981.54
2018-07-24T05:50:18.393Z,981.57
2018-07-24T05:51:28.194Z,981.58
2018-07-24T05:52:38.346Z,981.58
2018-07-24T05:53:48.405Z,981.64
2018-07-24T05:54:58.259Z,981.59
2018-07-24T05:56:08.584Z,981.56
2018-07-24T05:57:18.670Z,981.52
2018-07-24T05:58:28.809Z,981.53
2018-07-24T05:59:38.889Z,981.5
2018-07-24T06:00:48.430Z,981.52
2018-07-24T06:01:58.290Z,981.5
2018-07-24T06:03:08.320Z,981.48
2018-07-24T06:04:18.183Z,981.5
2018-07-24T06:05:28.279Z,981.49
2018-07-24T06:06:38.358Z,981.46
2018-07-24T06:07:48.441Z,981.51
2018-07-24T06:08:58.514Z,981.48
2018-07-24T06:10:08.649Z,981.47
2018-07-24T06:11:18.731Z,981.47
2018-07-24T06:12:28.809Z,981.46
2018-07-24T06:13:38.881Z,981.46
2018-07-24T06:14:48.964Z,981.46
2018-07-24T06:15:58.817Z,981.47
2018-07-24T06:17:08.901Z,981.45
2018-07-24T06:18:19.013Z,981.45
2018-07-24T06:19:28.818Z,981.45
2018-07-24T06:20:38.877Z,981.46
2018-07-24T06:21:49.047Z,981.44
2018-07-24T06:22:58.777Z,981.44
2018-07-24T06:24:08.588Z,981.46
2018-07-24T06:25:18.689Z,981.46
2018-07-24T06:26:28.757Z,981.48
2018-07-24T06:27:38.884Z,981.53
2018-07-24T06:28:48.959Z,981.51
2018-07-24T06:29:58.791Z,981.54
2018-07-24T06:31:08.864Z,981.52
2018-07-24T06:32:18.684Z,981.53
2018-07-24T06:33:28.813Z,981.53
2018-07-24T06:34:38.603Z,981.5
2018-07-24T06:35:48.398Z,981.51
2018-07-24T06:36:58.464Z,981.48
2018-07-24T06:38:21.281Z,981.54
2018-07-24T06:39:31.387Z,981.53
2018-07-24T06:40:41.940Z,981.57
2018-07-24T06:41:52.245Z,981.58
2018-07-24T06:43:02.347Z,981.59
2018-07-24T06:44:12.548Z,981.6
2018-07-24T06:45:22.930Z,981.56
2018-07-24T06:46:32.476Z,981.61
2018-07-24T06:47:42.280Z,981.54
2018-07-24T06:48:52.085Z,981.6
2018-07-24T06:50:01.950Z,981.56
2018-07-24T06:51:12.083Z,981.58
2018-07-24T06:52:22.308Z,981.6
2018-07-24T06:53:32.122Z,981.59
2018-07-24T06:54:41.918Z,981.6
2018-07-24T06:55:51.506Z,981.62
2018-07-24T06:57:01.320Z,981.57
2018-07-24T06:58:10.905Z,981.61
2018-07-24T06:59:20.977Z,981.57
2018-07-24T07:00:30.778Z,981.55
2018-07-24T07:01:40.633Z,981.53
2018-07-24T07:02:50.177Z,981.56
2018-07-24T07:04:00.255Z,981.52
2018-07-24T07:05:09.933Z,981.55
2018-07-24T07:06:19.887Z,981.55
2018-07-24T07:07:29.788Z,981.57
2018-07-24T07:08:40.072Z,981.59
2018-07-24T07:09:49.607Z,981.61
2018-07-24T07:10:59.691Z,981.57
2018-07-24T07:12:09.506Z,981.58
2018-07-24T07:13:19.389Z,981.56
2018-07-24T07:14:29.933Z,981.53
2018-07-24T07:15:39.994Z,981.56
2018-07-24T07:16:49.259Z,981.52
2018-07-24T07:17:59.359Z,981.52
2018-07-24T07:19:09.491Z,981.49
2018-07-24T07:20:19.552Z,981.46
2018-07-24T07:21:29.477Z,981.48
2018-07-24T07:22:39.020Z,981.49
2018-07-24T07:23:48.814Z,981.48
2018-07-24T07:24:58.957Z,981.39
2018-07-24T07:26:09.109Z,981.4
2018-07-24T07:27:18.847Z,981.38
2018-07-24T07:28:28.915Z,981.36
2018-07-24T07:29:38.996Z,981.34
2018-07-24T07:30:48.843Z,981.34
2018-07-24T07:31:58.656Z,981.35
2018-07-24T07:33:08.516Z,981.31
2018-07-24T07:34:18.603Z,981.31
2018-07-24T07:35:28.692Z,981.3
2018-07-24T07:36:38.820Z,981.35
2018-07-24T07:37:48.899Z,981.35
2018-07-24T07:38:58.964Z,981.28
2018-07-24T07:40:08.809Z,981.29
2018-07-24T07:41:18.618Z,981.28
2018-07-24T07:42:28.462Z,981.28
2018-07-24T07:43:38.542Z,981.32
2018-07-24T07:44:48.365Z,981.29
2018-07-24T07:45:58.446Z,981.3
2018-07-24T07:47:08.539Z,981.27
2018-07-24T07:48:18.657Z,981.31
2018-07-24T07:49:28.447Z,981.26
2018-07-24T07:50:37.983Z,981.26
2018-07-24T07:51:48.035Z,981.26
2018-07-24T07:52:57.840Z,981.29
2018-07-24T07:54:07.149Z,981.26
2018-07-24T07:55:16.683Z,981.27
2018-07-24T07:56:26.761Z,981.29
2018-07-24T07:57:36.842Z,981.29
2018-07-24T07:58:46.946Z,981.23
2018-07-24T07:59:56.708Z,981.23
2018-07-24T08:01:06.535Z,981.25
2018-07-24T08:02:16.319Z,981.25
2018-07-24T08:03:26.221Z,981.23
2018-07-24T08:04:36.297Z,981.23
2018-07-24T08:05:46.413Z,981.23
2018-07-24T08:06:56.219Z,981.23
2018-07-24T08:08:05.764Z,981.25
2018-07-24T08:09:15.841Z,981.23
2018-07-24T08:10:25.929Z,981.23
2018-07-24T08:11:35.502Z,981.21
2018-07-24T08:12:45.571Z,981.25
2018-07-24T08:13:55.655Z,981.27
2018-07-24T08:15:05.911Z,981.24
2018-07-24T08:16:15.716Z,981.26
2018-07-24T08:17:25.583Z,981.25
2018-07-24T08:18:35.385Z,981.24
2018-07-24T08:19:45.191Z,981.23
2018-07-24T08:20:54.995Z,981.22
2018-07-24T08:22:05.088Z,981.24
2018-07-24T08:23:15.329Z,981.26
2018-07-24T08:24:25.381Z,981.27
2018-07-24T08:25:35.466Z,981.31
2018-07-24T08:26:45.260Z,981.25
2018-07-24T08:27:55.109Z,981.25
2018-07-24T08:29:05.625Z,981.2
2018-07-24T08:30:15.700Z,981.18
2018-07-24T08:31:25.502Z,981.15
2018-07-24T08:32:35.594Z,981.11
2018-07-24T08:33:45.653Z,981.11
2018-07-24T08:34:55.773Z,981.13
2018-07-24T08:36:05.294Z,981.12
2018-07-24T08:37:15.349Z,981.13
2018-07-24T08:38:25.167Z,981.13
2018-07-24T08:39:34.706Z,981.13
2018-07-24T08:40:44.845Z,981.16
2018-07-24T08:41:54.646Z,981.19
2018-07-24T08:43:04.168Z,981.19
2018-07-24T08:44:13.973Z,981.17
2018-07-24T08:45:23.767Z,981.22
2018-07-24T08:46:33.362Z,981.28
2018-07-24T08:47:43.164Z,981.23
2018-07-24T08:48:53.227Z,981.24
2018-07-24T08:50:02.757Z,981.26
2018-07-24T08:51:12.821Z,981.27
2018-07-24T08:52:22.742Z,981.26
2018-07-24T08:53:33.108Z,981.26
2018-07-24T08:54:44.945Z,981.21
2018-07-24T08:55:57.078Z,981.21
2018-07-24T08:57:06.353Z,981.22
2018-07-24T08:58:16.482Z,981.18
2018-07-24T08:59:25.762Z,981.17
2018-07-24T09:00:35.629Z,981.13
2018-07-24T09:01:45.446Z,981.18
2018-07-24T09:02:55.540Z,981.17
2018-07-24T09:04:05.684Z,981.21
2018-07-24T09:05:15.789Z,981.24
2018-07-24T09:06:25.875Z,981.18
2018-07-24T09:07:35.957Z,981.22
2018-07-24T09:08:46.010Z,981.16
2018-07-24T09:09:56.141Z,981.14
2018-07-24T09:11:05.734Z,981.17
2018-07-24T09:12:15.545Z,981.15
2018-07-24T09:13:25.623Z,981.11
2018-07-24T09:14:35.693Z,981.16
2018-07-24T09:15:45.565Z,981.17
2018-07-24T09:16:55.132Z,981.15
2018-07-24T09:18:04.944Z,981.08
2018-07-24T09:19:14.751Z,981.06
2018-07-24T09:20:24.561Z,981.04
2018-07-24T09:21:34.691Z,981.08
2018-07-24T09:22:44.780Z,981.03
2018-07-24T09:23:54.328Z,981.03
2018-07-24T09:25:04.430Z,980.98
2018-07-24T09:26:14.525Z,980.97
2018-07-24T09:27:24.658Z,980.93
2018-07-24T09:28:34.198Z,980.91
2018-07-24T09:29:44.290Z,980.88
2018-07-24T09:30:53.817Z,980.84
2018-07-24T09:32:03.639Z,980.9
2018-07-24T09:33:13.811Z,980.87
2018-07-24T09:34:23.601Z,980.91
2018-07-24T09:35:33.689Z,980.93
2018-07-24T09:36:43.769Z,980.97
2018-07-24T09:37:53.854Z,981
2018-07-24T09:39:03.721Z,980.97
2018-07-24T09:40:13.780Z,980.99
2018-07-24T09:41:23.676Z,980.97
2018-07-24T09:42:33.755Z,980.97
2018-07-24T09:43:43.831Z,980.98
2018-07-24T09:44:54.021Z,980.97
2018-07-24T09:46:03.561Z,981
2018-07-24T09:47:13.365Z,980.92
2018-07-24T09:48:22.896Z,980.88
2018-07-24T09:49:32.705Z,980.89
2018-07-24T09:50:42.558Z,980.9
2018-07-24T09:51:52.099Z,980.82
2018-07-24T09:53:01.904Z,980.83
2018-07-24T09:54:11.439Z,980.84
2018-07-24T09:55:21.251Z,980.84
2018-07-24T09:56:31.508Z,980.87
2018-07-24T09:57:41.053Z,980.84
2018-07-24T09:58:51.117Z,980.79
2018-07-24T10:00:01.208Z,980.81
2018-07-24T10:01:11.302Z,980.82
2018-07-24T10:02:21.174Z,980.82
2018-07-24T10:03:30.986Z,980.77
2018-07-24T10:04:41.060Z,980.78
2018-07-24T10:05:51.119Z,980.8
2018-07-24T10:07:01.198Z,980.83
2018-07-24T10:08:11.054Z,980.84
2018-07-24T10:09:21.144Z,980.84
2018-07-24T10:10:30.954Z,980.8
2018-07-24T10:11:41.032Z,980.84
2018-07-24T10:12:51.189Z,980.82
2018-07-24T10:14:01.289Z,980.8
2018-07-24T10:15:11.369Z,980.81
2018-07-24T10:16:20.958Z,980.78
2018-07-24T10:17:31.293Z,980.85
2018-07-24T10:18:40.806Z,980.84
2018-07-24T10:19:50.832Z,980.83
2018-07-24T10:21:00.917Z,980.8
2018-07-24T10:22:11.028Z,980.85
2018-07-24T10:23:21.124Z,980.86
2018-07-24T10:24:31.256Z,980.84
2018-07-24T10:25:40.677Z,980.82
2018-07-24T10:26:50.470Z,980.87
2018-07-24T10:28:00.305Z,980.85
2018-07-24T10:29:10.123Z,980.87
2018-07-24T10:30:19.986Z,980.85
2018-07-24T10:31:30.110Z,980.82
2018-07-24T10:32:40.199Z,980.8
2018-07-24T10:33:50.288Z,980.77
2018-07-24T10:35:00.386Z,980.75
2018-07-24T10:36:09.647Z,980.81
2018-07-24T10:37:19.792Z,980.8
2018-07-24T10:38:29.866Z,980.77
2018-07-24T10:39:39.683Z,980.74
2018-07-24T10:40:49.763Z,980.72
2018-07-24T10:41:59.854Z,980.69
2018-07-24T10:43:09.592Z,980.7
2018-07-24T10:44:19.837Z,980.7
2018-07-24T10:45:29.372Z,980.72
2018-07-24T10:46:38.902Z,980.72
2018-07-24T10:47:48.708Z,980.7
2018-07-24T10:48:58.561Z,980.71
2018-07-24T10:50:08.652Z,980.72
2018-07-24T10:51:18.742Z,980.76
2018-07-24T10:52:28.823Z,980.74
2018-07-24T10:53:38.678Z,980.71
2018-07-24T10:54:48.555Z,980.67
2018-07-24T10:55:58.629Z,980.7
2018-07-24T10:57:08.762Z,980.75
2018-07-24T10:58:18.302Z,980.75
2018-07-24T10:59:28.155Z,980.73
2018-07-24T11:00:37.998Z,980.78
2018-07-24T11:01:47.546Z,980.76
2018-07-24T11:02:57.360Z,980.77
2018-07-24T11:04:07.183Z,980.79
2018-07-24T11:05:17.082Z,980.75
2018-07-24T11:06:27.641Z,980.74
2018-07-24T11:07:37.458Z,980.72
2018-07-24T11:08:46.732Z,980.68
2018-07-24T11:09:56.816Z,980.71
2018-07-24T11:11:06.452Z,980.69
2018-07-24T11:12:16.610Z,980.65
2018-07-24T11:13:26.694Z,980.66
2018-07-24T11:14:36.771Z,980.7
2018-07-24T11:15:46.856Z,980.7
2018-07-24T11:16:56.676Z,980.69
2018-07-24T11:18:06.263Z,980.66
2018-07-24T11:19:16.350Z,980.63
2018-07-24T11:20:25.926Z,980.63
2018-07-24T11:21:35.771Z,980.59
2018-07-24T11:22:46.144Z,980.58
2018-07-24T11:23:57.339Z,980.59
2018-07-24T11:25:06.871Z,980.55
2018-07-24T11:26:16.407Z,980.53
2018-07-24T11:27:26.526Z,980.53
2018-07-24T11:28:36.813Z,980.54
2018-07-24T11:29:46.951Z,980.55
2018-07-24T11:30:56.770Z,980.55
2018-07-24T11:32:06.858Z,980.56
2018-07-24T11:33:16.703Z,980.51
2018-07-24T11:34:27.175Z,980.5
2018-07-24T11:35:37.358Z,980.49
2018-07-24T11:36:48.478Z,980.52
2018-07-24T11:37:58.311Z,980.57
2018-07-24T11:39:08.115Z,980.55
2018-07-24T11:40:18.207Z,980.49
2018-07-24T11:41:28.069Z,980.51
2018-07-24T11:42:37.625Z,980.52
2018-07-24T11:43:47.705Z,980.56
2018-07-24T11:44:57.912Z,980.61
2018-07-24T11:46:08.048Z,980.59
2018-07-24T11:47:18.175Z,980.62
2018-07-24T11:48:28.273Z,980.62
2018-07-24T11:49:38.084Z,980.61
2018-07-24T11:50:47.631Z,980.54
2018-07-24T11:51:57.281Z,980.57
2018-07-24T11:53:07.258Z,980.57
2018-07-24T11:54:17.074Z,980.63
2018-07-24T11:55:26.884Z,980.67
2018-07-24T11:56:37.029Z,980.6
2018-07-24T11:57:47.239Z,980.55
2018-07-24T11:58:57.410Z,980.56
2018-07-24T12:00:07.224Z,980.6
2018-07-24T12:01:17.038Z,980.61
2018-07-24T12:02:27.131Z,980.59
2018-07-24T12:03:37.237Z,980.63
2018-07-24T12:04:47.677Z,980.65
2018-07-24T12:05:57.694Z,980.69
2018-07-24T12:07:07.804Z,980.67
2018-07-24T12:08:17.610Z,980.67
2018-07-24T12:09:27.413Z,980.61
2018-07-24T12:10:37.294Z,980.64
2018-07-24T12:11:47.100Z,980.63
2018-07-24T12:12:57.248Z,980.74
2018-07-24T12:14:07.061Z,980.48
2018-07-24T12:15:16.913Z,980.45
2018-07-24T12:16:26.752Z,980.54
2018-07-24T12:17:36.619Z,980.65
2018-07-24T12:18:46.713Z,980.52
2018-07-24T12:19:56.532Z,980.6
2018-07-24T12:21:06.347Z,980.7
2018-07-24T12:22:15.677Z,980.46
2018-07-24T12:23:25.486Z,980.38
2018-07-24T12:24:35.563Z,980.56
2018-07-24T12:25:45.379Z,980.67
2018-07-24T12:26:55.233Z,980.42
2018-07-24T12:28:05.566Z,980.46
2018-07-24T12:29:15.651Z,980.48
2018-07-24T12:30:25.476Z,980.34
2018-07-24T12:31:35.542Z,980.37
2018-07-24T12:32:45.639Z,980.35
2018-07-24T12:33:55.241Z,980.56
2018-07-24T12:35:05.332Z,980.5
2018-07-24T12:36:15.546Z,980.5
2018-07-24T12:37:25.651Z,980.2
2018-07-24T12:38:35.497Z,980.4
2018-07-24T12:39:45.650Z,980.38
2018-07-24T12:40:55.205Z,980.69
2018-07-24T12:42:05.067Z,980.32
2018-07-24T12:43:15.244Z,980.25
2018-07-24T12:44:25.056Z,980.32
2018-07-24T12:45:34.917Z,980.51
2018-07-24T12:46:45.012Z,980.48
2018-07-24T12:47:55.094Z,980.38
2018-07-24T12:49:05.183Z,980.53
2018-07-24T12:50:15.274Z,980.43
2018-07-24T12:51:25.168Z,980.55
2018-07-24T12:52:35.079Z,980.43
2018-07-24T12:53:45.241Z,980.37
2018-07-24T12:54:55.323Z,980.47
2018-07-24T12:56:05.123Z,980.51
2018-07-24T12:57:14.988Z,980.49
2018-07-24T12:58:24.803Z,980.47
2018-07-24T12:59:34.906Z,980.44
2018-07-24T13:00:44.997Z,980.49
2018-07-24T13:01:54.536Z,980.53
2018-07-24T13:03:04.406Z,980.5
2018-07-24T13:04:14.560Z,980.35
2018-07-24T13:05:24.464Z,980.41
2018-07-24T13:06:34.300Z,980.42
2018-07-24T13:07:44.402Z,980.43
2018-07-24T13:08:54.535Z,980.53
2018-07-24T13:10:04.716Z,980.44
2018-07-24T13:11:15.487Z,980.51
2018-07-24T13:12:25.285Z,980.56
2018-07-24T13:13:35.090Z,980.66
2018-07-24T13:14:44.697Z,980.55
2018-07-24T13:15:54.498Z,980.42
2018-07-24T13:17:04.039Z,980.47
2018-07-24T13:18:13.855Z,980.39
2018-07-24T13:19:23.672Z,980.43
2018-07-24T13:20:33.945Z,980.55
2018-07-24T13:21:43.771Z,980.54
2018-07-24T13:22:53.580Z,980.32
2018-07-24T13:24:03.414Z,980.27
2018-07-24T13:25:13.499Z,980.33
2018-07-24T13:26:23.633Z,980.3
2018-07-24T13:27:33.485Z,980.23
2018-07-24T13:28:43.039Z,980.32
2018-07-24T13:29:53.127Z,980.28
2018-07-24T13:31:03.221Z,980.31
2018-07-24T13:32:13.429Z,980.32
2018-07-24T13:33:23.626Z,980.34
2018-07-24T13:34:33.454Z,980.37
2018-07-24T13:35:42.723Z,980.39
2018-07-24T13:36:52.540Z,980.37
2018-07-24T13:38:02.401Z,980.44
2018-07-24T13:39:12.213Z,980.46
2018-07-24T13:40:22.028Z,980.43
2018-07-24T13:41:32.111Z,980.4
2018-07-24T13:42:42.188Z,980.47
2018-07-24T13:43:52.295Z,980.45
2018-07-24T13:45:02.135Z,980.44
2018-07-24T13:46:12.259Z,980.41
2018-07-24T13:47:22.055Z,980.42
2018-07-24T13:48:31.597Z,980.39
2018-07-24T13:49:41.203Z,980.41
2018-07-24T13:50:51.015Z,980.36
2018-07-24T13:52:00.619Z,980.35
2018-07-24T13:53:10.833Z,980.4
2018-07-24T13:54:20.637Z,980.39
2018-07-24T13:55:30.249Z,980.39
2018-07-24T13:56:40.063Z,980.43
2018-07-24T13:57:49.859Z,980.41
2018-07-24T13:58:59.510Z,980.42
2018-07-24T14:00:09.477Z,980.4
2018-07-24T14:01:18.808Z,980.38
2018-07-24T14:02:28.611Z,980.38
2018-07-24T14:03:38.697Z,980.4
2018-07-24T14:04:48.230Z,980.39
2018-07-24T14:05:58.308Z,980.4
2018-07-24T14:07:07.629Z,980.36
2018-07-24T14:08:17.456Z,980.37
2018-07-24T14:09:27.319Z,980.38
2018-07-24T14:10:37.394Z,980.36
2018-07-24T14:11:47.477Z,980.41
2018-07-24T14:12:57.345Z,980.4
2018-07-24T14:14:07.196Z,980.4
2018-07-24T14:15:16.951Z,980.41
2018-07-24T14:16:26.228Z,980.37
2018-07-24T14:17:36.316Z,980.38
2018-07-24T14:18:46.455Z,980.34
2018-07-24T14:19:56.551Z,980.35
2018-07-24T14:21:06.357Z,980.35
2018-07-24T14:22:16.446Z,980.36
2018-07-24T14:23:26.242Z,980.31
2018-07-24T14:24:36.087Z,980.28
2018-07-24T14:25:45.640Z,980.29
2018-07-24T14:26:55.704Z,980.32
2018-07-24T14:28:05.517Z,980.3
2018-07-24T14:29:14.771Z,980.29
2018-07-24T14:30:24.620Z,980.29
2018-07-24T14:31:34.711Z,980.34
2018-07-24T14:32:44.248Z,980.33
2018-07-24T14:33:54.344Z,980.34
2018-07-24T14:35:04.440Z,980.29
2018-07-24T14:36:14.603Z,980.32
2018-07-24T14:37:24.657Z,980.3
2018-07-24T14:38:34.736Z,980.28